Terminal Aerodrome Forecast
Issued by NWS

Home | Current Version | Previous Version | Text Only | Print | Product List | Glossary On
Versions: 1 2 3 4 5 6 7 8 9 10 11 12 13 14 15 16 17 18 19 20 21 22 23 24
000
FTUS46 KSEW 271720
TAFPAE
TAF
KPAE 271720Z 2718/2818 16014G22KT P6SM VCSH BKN020 BKN040
     FM280000 23008KT P6SM VCSH BKN025 BKN050
     FM280900 18012KT P6SM -RA BKN030 OVC050
     FM281200 16014KT P6SM -RA OVC025=

USA.gov is the U.S. government's official web portal to all federal, state and local government web resources and services.